MDT,Max TemperatureF,Mean TemperatureF,Min TemperatureF,Max Dew PointF,MeanDew PointF,Min DewpointF,Max Humidity, Mean Humidity, Min Humidity, Max Sea Level PressureIn, Mean Sea Level PressureIn, Min Sea Level PressureIn, Max VisibilityMiles, Mean VisibilityMiles, Min VisibilityMiles, Max Wind SpeedMPH, Mean Wind SpeedMPH, Max Gust SpeedMPH,PrecipitationIn, CloudCover, Events, WindDirDegrees
2013-3-1,48,31,14,18,14,7,79,48,27,30.39,30.33,30.27,10,10,10,14,7,28,0.00,0,,334
2013-3-2,55,36,17,21,18,10,86,51,24,30.46,30.36,30.27,10,10,10,12,4,,0.00,0,,142
2013-3-3,60,43,26,25,19,12,80,44,17,30.26,30.05,29.93,10,10,10,21,7,31,0.00,2,,270
2013-3-4,53,43,33,27,21,12,56,44,28,30.15,29.94,29.84,10,10,10,23,12,31,0.00,4,,265
2013-3-5,53,34,15,16,10,3,80,41,13,30.33,30.26,30.17,10,10,10,12,5,16,0.00,0,,314
2013-3-6,59,40,21,21,17,9,64,42,23,30.25,30.14,30.04,10,10,9,18,6,26,0.00,0,,277
2013-3-7,62,42,23,21,15,7,74,38,13,30.14,30.07,30.01,10,10,10,17,4,24,0.00,0,,226
2013-3-8,55,40,24,34,21,10,93,55,22,30.04,29.92,29.79,10,9,1,30,7,41,0.16,4,,238
2013-3-9,32,28,23,30,22,18,93,81,64,29.97,29.82,29.76,10,8,1,20,8,23,0.07,7,,194
2013-3-10,37,26,15,23,18,9,93,69,44,30.20,30.08,29.97,10,9,2,17,6,21,0.00,1,,349
2013-3-11,51,33,15,25,20,10,86,62,33,30.20,30.13,30.02,10,10,10,18,5,25,0.00,0,,299
2013-3-12,55,38,21,27,23,16,93,57,26,30.32,30.22,30.13,10,10,10,12,3,17,0.00,0,,282
2013-3-13,60,42,23,28,24,19,86,53,23,30.42,30.36,30.32,10,10,9,12,4,17,0.00,0,,350
2013-3-14,64,45,26,27,21,14,80,45,16,30.46,30.38,30.32,10,10,10,21,4,26,0.00,0,,4
2013-3-15,71,48,24,25,18,10,74,38,12,30.34,30.22,30.09,10,10,10,23,5,30,0.00,0,,328
2013-3-16,60,46,33,36,24,18,87,44,22,30.08,29.98,29.88,10,10,5,29,8,43,0.03,2,,288
2013-3-17,57,42,28,37,25,7,93,60,17,29.97,29.87,29.74,10,10,8,32,9,43,0.00,2,,300
2013-3-18,55,38,21,19,10,1,80,36,13,30.08,29.99,29.92,10,10,10,23,8,34,0.00,0,,303
2013-3-19,51,35,19,18,11,3,58,38,20,30.25,30.12,30.05,10,10,10,15,6,17,0.00,2,,213
2013-3-20,55,35,15,23,17,9,74,44,23,30.30,30.16,29.97,10,10,10,18,5,24,0.00,3,,271
2013-3-21,60,46,32,28,19,5,60,36,15,29.95,29.81,29.66,10,10,10,37,10,50,0.00,3,,260
2013-3-22,53,36,19,18,10,3,63,35,17,29.86,29.79,29.70,10,10,8,24,8,40,0.00,2,,279
2013-3-23,35,22,10,12,3,-8,86,40,17,30.06,29.83,29.72,10,10,3,29,12,40,0.00,2,,295
2013-3-24,44,22,1,10,2,-6,92,48,18,30.08,30.01,29.90,10,10,8,25,8,32,0.00,1,,321
2013-3-25,44,26,8,9,0,-9,68,37,16,30.19,30.13,30.07,10,10,10,13,5,16,0.00,0,,222
2013-3-26,57,38,19,14,8,-4,46,28,17,30.21,30.13,30.02,10,10,10,21,7,26,0.00,1,,247
2013-3-27,64,45,26,18,10,3,47,25,11,30.16,30.10,30.05,10,10,10,26,6,36,0.00,2,,288
2013-3-28,66,48,30,18,11,7,44,24,11,30.22,30.17,30.12,10,10,10,20,7,29,0.00,0,,272
2013-3-29,64,45,26,27,16,7,52,35,16,30.27,30.22,30.16,10,10,10,18,7,36,0.00,2,Thunderstorm,32
2013-3-30,64,44,24,27,19,12,69,38,15,30.29,30.20,30.09,10,10,10,20,6,25,0.00,2,,332
2013-3-31,66,48,30,28,22,12,65,37,15,30.21,30.15,30.06,10,10,10,18,7,30,0.00,3,,287